sensor_id;sensor_type;location;lat;lon;timestamp;P1;durP1;ratioP1;P2;durP2;ratioP2
70576;SDS011;58138;43.138;24.702;2022-12-07T00:01:36;30.15;;;16.13;;
70576;SDS011;58138;43.138;24.702;2022-12-07T00:04:07;29.70;;;13.90;;
70576;SDS011;58138;43.138;24.702;2022-12-07T00:06:39;30.45;;;14.65;;
70576;SDS011;58138;43.138;24.702;2022-12-07T00:09:08;34.72;;;14.95;;
70576;SDS011;58138;43.138;24.702;2022-12-07T00:11:35;34.42;;;14.25;;
70576;SDS011;58138;43.138;24.702;2022-12-07T00:14:02;41.13;;;18.98;;
70576;SDS011;58138;43.138;24.702;2022-12-07T00:16:29;39.97;;;18.92;;
70576;SDS011;58138;43.138;24.702;2022-12-07T00:18:55;38.42;;;18.23;;
70576;SDS011;58138;43.138;24.702;2022-12-07T00:21:22;43.08;;;19.15;;
70576;SDS011;58138;43.138;24.702;2022-12-07T00:23:53;39.92;;;19.00;;
70576;SDS011;58138;43.138;24.702;2022-12-07T00:26:23;37.33;;;19.02;;
70576;SDS011;58138;43.138;24.702;2022-12-07T00:28:50;39.03;;;19.70;;
70576;SDS011;58138;43.138;24.702;2022-12-07T00:31:18;34.45;;;14.63;;
70576;SDS011;58138;43.138;24.702;2022-12-07T00:33:44;36.13;;;17.52;;
70576;SDS011;58138;43.138;24.702;2022-12-07T00:36:12;32.38;;;15.43;;
70576;SDS011;58138;43.138;24.702;2022-12-07T00:38:39;34.63;;;17.15;;
70576;SDS011;58138;43.138;24.702;2022-12-07T00:41:06;34.72;;;16.08;;
70576;SDS011;58138;43.138;24.702;2022-12-07T00:43:35;35.28;;;14.18;;
70576;SDS011;58138;43.138;24.702;2022-12-07T00:46:01;35.78;;;15.50;;
70576;SDS011;58138;43.138;24.702;2022-12-07T00:48:26;39.55;;;16.95;;
70576;SDS011;58138;43.138;24.702;2022-12-07T00:50:52;32.33;;;15.75;;
70576;SDS011;58138;43.138;24.702;2022-12-07T00:53:18;32.88;;;13.77;;
70576;SDS011;58138;43.138;24.702;2022-12-07T00:55:43;26.90;;;12.20;;
70576;SDS011;58138;43.138;24.702;2022-12-07T00:58:09;29.80;;;14.02;;
70576;SDS011;58138;43.138;24.702;2022-12-07T01:00:36;32.33;;;16.25;;
70576;SDS011;58138;43.138;24.702;2022-12-07T01:03:03;32.83;;;16.17;;
70576;SDS011;58138;43.138;24.702;2022-12-07T01:05:29;30.33;;;14.80;;
70576;SDS011;58138;43.138;24.702;2022-12-07T01:07:54;29.25;;;15.45;;
70576;SDS011;58138;43.138;24.702;2022-12-07T01:10:21;27.13;;;15.10;;
70576;SDS011;58138;43.138;24.702;2022-12-07T01:12:47;27.58;;;15.98;;
70576;SDS011;58138;43.138;24.702;2022-12-07T01:15:12;25.73;;;14.68;;
70576;SDS011;58138;43.138;24.702;2022-12-07T01:17:38;23.85;;;14.38;;
70576;SDS011;58138;43.138;24.702;2022-12-07T01:20:04;27.30;;;14.63;;
70576;SDS011;58138;43.138;24.702;2022-12-07T01:22:30;24.58;;;14.25;;
70576;SDS011;58138;43.138;24.702;2022-12-07T01:24:55;26.08;;;15.15;;
70576;SDS011;58138;43.138;24.702;2022-12-07T01:27:21;27.30;;;15.05;;
70576;SDS011;58138;43.138;24.702;2022-12-07T01:29:46;25.40;;;12.73;;
70576;SDS011;58138;43.138;24.702;2022-12-07T01:32:12;24.58;;;12.93;;
70576;SDS011;58138;43.138;24.702;2022-12-07T01:34:37;24.35;;;13.48;;
70576;SDS011;58138;43.138;24.702;2022-12-07T01:37:03;27.88;;;14.98;;
70576;SDS011;58138;43.138;24.702;2022-12-07T01:39:28;26.70;;;13.82;;
70576;SDS011;58138;43.138;24.702;2022-12-07T01:41:54;28.98;;;13.63;;
70576;SDS011;58138;43.138;24.702;2022-12-07T01:44:24;27.50;;;15.43;;
70576;SDS011;58138;43.138;24.702;2022-12-07T01:46:54;27.88;;;14.57;;
70576;SDS011;58138;43.138;24.702;2022-12-07T01:52:30;22.90;;;13.48;;
70576;SDS011;58138;43.138;24.702;2022-12-07T01:54:58;27.35;;;15.60;;
70576;SDS011;58138;43.138;24.702;2022-12-07T01:57:27;26.63;;;15.07;;
70576;SDS011;58138;43.138;24.702;2022-12-07T01:59:53;25.75;;;13.85;;
70576;SDS011;58138;43.138;24.702;2022-12-07T02:02:20;27.00;;;15.10;;
70576;SDS011;58138;43.138;24.702;2022-12-07T02:04:53;33.30;;;16.92;;
70576;SDS011;58138;43.138;24.702;2022-12-07T02:07:19;32.45;;;17.92;;
70576;SDS011;58138;43.138;24.702;2022-12-07T02:09:45;29.30;;;14.88;;
70576;SDS011;58138;43.138;24.702;2022-12-07T02:12:11;30.77;;;16.10;;
70576;SDS011;58138;43.138;24.702;2022-12-07T02:14:36;31.85;;;15.93;;
70576;SDS011;58138;43.138;24.702;2022-12-07T02:25:42;31.10;;;15.73;;
70576;SDS011;58138;43.138;24.702;2022-12-07T02:30:58;32.22;;;16.00;;
70576;SDS011;58138;43.138;24.702;2022-12-07T02:33:29;34.42;;;18.38;;
70576;SDS011;58138;43.138;24.702;2022-12-07T02:36:04;39.97;;;18.17;;
70576;SDS011;58138;43.138;24.702;2022-12-07T02:41:22;35.30;;;18.25;;
70576;SDS011;58138;43.138;24.702;2022-12-07T02:43:52;33.47;;;18.00;;
70576;SDS011;58138;43.138;24.702;2022-12-07T02:46:27;31.48;;;17.00;;
70576;SDS011;58138;43.138;24.702;2022-12-07T02:48:55;31.10;;;16.48;;
70576;SDS011;58138;43.138;24.702;2022-12-07T02:51:21;30.35;;;14.23;;
70576;SDS011;58138;43.138;24.702;2022-12-07T02:53:47;29.35;;;16.13;;
70576;SDS011;58138;43.138;24.702;2022-12-07T02:56:27;30.52;;;15.35;;
70576;SDS011;58138;43.138;24.702;2022-12-07T03:01:52;25.85;;;14.65;;
70576;SDS011;58138;43.138;24.702;2022-12-07T03:07:39;27.95;;;14.20;;
70576;SDS011;58138;43.138;24.702;2022-12-07T03:10:32;23.08;;;13.40;;
70576;SDS011;58138;43.138;24.702;2022-12-07T03:13:29;27.00;;;14.68;;
70576;SDS011;58138;43.138;24.702;2022-12-07T03:18:50;23.70;;;13.20;;
70576;SDS011;58138;43.138;24.702;2022-12-07T03:21:31;30.50;;;15.10;;
70576;SDS011;58138;43.138;24.702;2022-12-07T03:23:59;19.75;;;10.93;;
70576;SDS011;58138;43.138;24.702;2022-12-07T03:26:35;11.55;;;6.57;;
70576;SDS011;58138;43.138;24.702;2022-12-07T03:29:05;27.33;;;15.23;;
70576;SDS011;58138;43.138;24.702;2022-12-07T03:31:36;25.40;;;12.60;;
70576;SDS011;58138;43.138;24.702;2022-12-07T03:34:14;26.77;;;14.90;;
70576;SDS011;58138;43.138;24.702;2022-12-07T03:36:54;26.02;;;15.07;;
70576;SDS011;58138;43.138;24.702;2022-12-07T03:41:54;28.85;;;16.40;;
70576;SDS011;58138;43.138;24.702;2022-12-07T03:44:20;24.05;;;15.20;;
70576;SDS011;58138;43.138;24.702;2022-12-07T03:49:25;27.17;;;15.68;;
70576;SDS011;58138;43.138;24.702;2022-12-07T03:54:40;27.08;;;15.25;;
70576;SDS011;58138;43.138;24.702;2022-12-07T03:57:07;27.95;;;16.50;;
70576;SDS011;58138;43.138;24.702;2022-12-07T03:59:33;26.13;;;14.98;;
70576;SDS011;58138;43.138;24.702;2022-12-07T04:02:02;28.20;;;16.95;;
70576;SDS011;58138;43.138;24.702;2022-12-07T04:04:29;27.20;;;15.30;;
70576;SDS011;58138;43.138;24.702;2022-12-07T04:06:54;26.60;;;14.88;;
70576;SDS011;58138;43.138;24.702;2022-12-07T04:09:20;31.48;;;14.68;;
70576;SDS011;58138;43.138;24.702;2022-12-07T04:11:46;28.95;;;14.82;;
70576;SDS011;58138;43.138;24.702;2022-12-07T04:14:11;24.90;;;13.23;;
70576;SDS011;58138;43.138;24.702;2022-12-07T04:16:46;22.77;;;14.23;;
70576;SDS011;58138;43.138;24.702;2022-12-07T04:19:13;26.23;;;14.70;;
70576;SDS011;58138;43.138;24.702;2022-12-07T04:21:39;24.50;;;13.98;;
70576;SDS011;58138;43.138;24.702;2022-12-07T04:24:04;13.63;;;8.35;;
70576;SDS011;58138;43.138;24.702;2022-12-07T04:26:30;18.13;;;10.73;;
70576;SDS011;58138;43.138;24.702;2022-12-07T04:28:55;23.45;;;14.65;;
70576;SDS011;58138;43.138;24.702;2022-12-07T04:31:21;25.55;;;14.27;;
70576;SDS011;58138;43.138;24.702;2022-12-07T04:33:46;24.80;;;14.07;;
70576;SDS011;58138;43.138;24.702;2022-12-07T04:36:11;23.77;;;14.20;;
70576;SDS011;58138;43.138;24.702;2022-12-07T04:38:37;26.75;;;16.65;;
70576;SDS011;58138;43.138;24.702;2022-12-07T04:41:06;30.23;;;19.52;;
70576;SDS011;58138;43.138;24.702;2022-12-07T04:43:33;32.35;;;18.83;;
70576;SDS011;58138;43.138;24.702;2022-12-07T04:45:59;26.75;;;17.63;;
70576;SDS011;58138;43.138;24.702;2022-12-07T04:48:24;28.70;;;17.73;;
70576;SDS011;58138;43.138;24.702;2022-12-07T04:50:50;23.13;;;15.10;;
70576;SDS011;58138;43.138;24.702;2022-12-07T04:53:15;23.88;;;15.63;;
70576;SDS011;58138;43.138;24.702;2022-12-07T04:55:40;16.92;;;9.98;;
70576;SDS011;58138;43.138;24.702;2022-12-07T04:58:06;26.20;;;15.65;;
70576;SDS011;58138;43.138;24.702;2022-12-07T05:00:31;15.88;;;6.20;;
70576;SDS011;58138;43.138;24.702;2022-12-07T05:02:57;11.10;;;5.75;;
70576;SDS011;58138;43.138;24.702;2022-12-07T05:05:23;14.65;;;8.20;;
70576;SDS011;58138;43.138;24.702;2022-12-07T05:07:49;13.00;;;7.40;;
70576;SDS011;58138;43.138;24.702;2022-12-07T05:10:15;22.70;;;14.00;;
70576;SDS011;58138;43.138;24.702;2022-12-07T05:12:40;8.27;;;4.57;;
70576;SDS011;58138;43.138;24.702;2022-12-07T05:15:06;21.80;;;15.15;;
70576;SDS011;58138;43.138;24.702;2022-12-07T05:17:31;37.95;;;26.95;;
70576;SDS011;58138;43.138;24.702;2022-12-07T05:19:57;24.58;;;16.30;;
70576;SDS011;58138;43.138;24.702;2022-12-07T05:22:22;34.95;;;20.92;;
70576;SDS011;58138;43.138;24.702;2022-12-07T05:24:50;52.53;;;31.25;;
70576;SDS011;58138;43.138;24.702;2022-12-07T05:27:16;33.13;;;19.52;;
70576;SDS011;58138;43.138;24.702;2022-12-07T05:29:41;37.35;;;21.58;;
70576;SDS011;58138;43.138;24.702;2022-12-07T05:32:07;27.83;;;17.23;;
70576;SDS011;58138;43.138;24.702;2022-12-07T05:34:32;36.08;;;21.75;;
70576;SDS011;58138;43.138;24.702;2022-12-07T05:36:57;51.05;;;33.28;;
70576;SDS011;58138;43.138;24.702;2022-12-07T05:39:23;51.20;;;31.38;;
70576;SDS011;58138;43.138;24.702;2022-12-07T05:41:48;56.67;;;32.47;;
70576;SDS011;58138;43.138;24.702;2022-12-07T05:44:32;41.83;;;26.08;;
70576;SDS011;58138;43.138;24.702;2022-12-07T05:46:58;46.03;;;27.10;;
70576;SDS011;58138;43.138;24.702;2022-12-07T05:49:23;45.95;;;28.00;;
70576;SDS011;58138;43.138;24.702;2022-12-07T05:51:48;47.55;;;27.92;;
70576;SDS011;58138;43.138;24.702;2022-12-07T05:54:14;47.00;;;28.63;;
70576;SDS011;58138;43.138;24.702;2022-12-07T05:56:39;58.20;;;36.25;;
70576;SDS011;58138;43.138;24.702;2022-12-07T05:59:05;48.25;;;30.05;;
70576;SDS011;58138;43.138;24.702;2022-12-07T06:01:53;46.95;;;29.48;;
70576;SDS011;58138;43.138;24.702;2022-12-07T06:04:26;57.85;;;33.50;;
70576;SDS011;58138;43.138;24.702;2022-12-07T06:06:53;53.50;;;32.05;;
70576;SDS011;58138;43.138;24.702;2022-12-07T06:09:20;57.67;;;33.20;;
70576;SDS011;58138;43.138;24.702;2022-12-07T06:11:47;49.40;;;30.13;;
70576;SDS011;58138;43.138;24.702;2022-12-07T06:14:31;40.35;;;25.20;;
70576;SDS011;58138;43.138;24.702;2022-12-07T06:16:57;39.28;;;23.38;;
70576;SDS011;58138;43.138;24.702;2022-12-07T06:19:23;44.03;;;27.55;;
70576;SDS011;58138;43.138;24.702;2022-12-07T06:21:48;48.92;;;28.50;;
70576;SDS011;58138;43.138;24.702;2022-12-07T06:24:14;42.50;;;24.42;;
70576;SDS011;58138;43.138;24.702;2022-12-07T06:26:40;44.10;;;25.42;;
70576;SDS011;58138;43.138;24.702;2022-12-07T06:29:06;51.47;;;29.20;;
70576;SDS011;58138;43.138;24.702;2022-12-07T06:31:31;62.47;;;36.25;;
70576;SDS011;58138;43.138;24.702;2022-12-07T06:34:00;46.53;;;26.23;;
70576;SDS011;58138;43.138;24.702;2022-12-07T06:36:27;46.45;;;28.50;;
70576;SDS011;58138;43.138;24.702;2022-12-07T06:38:53;69.22;;;43.90;;
70576;SDS011;58138;43.138;24.702;2022-12-07T06:41:18;65.20;;;39.85;;
70576;SDS011;58138;43.138;24.702;2022-12-07T06:43:44;46.25;;;29.30;;
70576;SDS011;58138;43.138;24.702;2022-12-07T06:46:09;44.25;;;28.42;;
70576;SDS011;58138;43.138;24.702;2022-12-07T06:48:35;45.20;;;29.65;;
70576;SDS011;58138;43.138;24.702;2022-12-07T06:51:00;37.53;;;22.63;;
70576;SDS011;58138;43.138;24.702;2022-12-07T06:53:25;38.38;;;23.38;;
70576;SDS011;58138;43.138;24.702;2022-12-07T06:55:51;34.60;;;22.27;;
70576;SDS011;58138;43.138;24.702;2022-12-07T06:58:17;43.03;;;27.17;;
70576;SDS011;58138;43.138;24.702;2022-12-07T07:00:43;42.28;;;25.90;;
70576;SDS011;58138;43.138;24.702;2022-12-07T07:03:09;35.42;;;21.77;;
70576;SDS011;58138;43.138;24.702;2022-12-07T07:05:34;50.72;;;31.00;;
70576;SDS011;58138;43.138;24.702;2022-12-07T07:08:00;37.95;;;23.02;;
70576;SDS011;58138;43.138;24.702;2022-12-07T07:10:25;31.15;;;20.67;;
70576;SDS011;58138;43.138;24.702;2022-12-07T07:12:51;56.53;;;36.65;;
70576;SDS011;58138;43.138;24.702;2022-12-07T07:15:16;43.85;;;28.10;;
70576;SDS011;58138;43.138;24.702;2022-12-07T07:17:42;36.45;;;23.58;;
70576;SDS011;58138;43.138;24.702;2022-12-07T07:20:08;35.83;;;25.00;;
70576;SDS011;58138;43.138;24.702;2022-12-07T07:22:34;36.25;;;22.88;;
70576;SDS011;58138;43.138;24.702;2022-12-07T07:24:59;43.28;;;26.00;;
70576;SDS011;58138;43.138;24.702;2022-12-07T07:27:25;34.17;;;23.10;;
70576;SDS011;58138;43.138;24.702;2022-12-07T07:29:50;32.42;;;21.30;;
70576;SDS011;58138;43.138;24.702;2022-12-07T07:32:16;44.72;;;28.90;;
70576;SDS011;58138;43.138;24.702;2022-12-07T07:34:41;44.95;;;30.08;;
70576;SDS011;58138;43.138;24.702;2022-12-07T07:37:06;51.75;;;34.30;;
70576;SDS011;58138;43.138;24.702;2022-12-07T07:39:32;40.60;;;25.05;;
70576;SDS011;58138;43.138;24.702;2022-12-07T07:41:57;34.25;;;22.30;;
70576;SDS011;58138;43.138;24.702;2022-12-07T07:44:23;29.65;;;19.48;;
70576;SDS011;58138;43.138;24.702;2022-12-07T07:46:48;32.40;;;18.90;;
70576;SDS011;58138;43.138;24.702;2022-12-07T07:49:14;34.55;;;21.00;;
70576;SDS011;58138;43.138;24.702;2022-12-07T07:51:39;35.92;;;21.70;;
70576;SDS011;58138;43.138;24.702;2022-12-07T07:54:05;33.80;;;21.00;;
70576;SDS011;58138;43.138;24.702;2022-12-07T07:56:30;36.08;;;23.00;;
70576;SDS011;58138;43.138;24.702;2022-12-07T07:58:56;39.90;;;24.35;;
70576;SDS011;58138;43.138;24.702;2022-12-07T08:01:21;35.95;;;22.58;;
70576;SDS011;58138;43.138;24.702;2022-12-07T08:03:47;36.33;;;24.50;;
70576;SDS011;58138;43.138;24.702;2022-12-07T08:06:13;35.35;;;23.45;;
70576;SDS011;58138;43.138;24.702;2022-12-07T08:08:39;35.95;;;23.25;;
70576;SDS011;58138;43.138;24.702;2022-12-07T08:11:04;38.65;;;24.95;;
70576;SDS011;58138;43.138;24.702;2022-12-07T08:13:31;57.33;;;28.20;;
70576;SDS011;58138;43.138;24.702;2022-12-07T08:15:56;44.38;;;26.52;;
70576;SDS011;58138;43.138;24.702;2022-12-07T08:18:21;45.00;;;27.35;;
70576;SDS011;58138;43.138;24.702;2022-12-07T08:20:47;48.67;;;29.50;;
70576;SDS011;58138;43.138;24.702;2022-12-07T08:23:13;58.42;;;35.03;;
70576;SDS011;58138;43.138;24.702;2022-12-07T08:25:38;36.65;;;24.67;;
70576;SDS011;58138;43.138;24.702;2022-12-07T08:28:04;36.72;;;23.63;;
70576;SDS011;58138;43.138;24.702;2022-12-07T08:30:30;29.65;;;17.60;;
70576;SDS011;58138;43.138;24.702;2022-12-07T08:32:56;33.97;;;19.35;;
70576;SDS011;58138;43.138;24.702;2022-12-07T08:35:22;26.70;;;18.27;;
70576;SDS011;58138;43.138;24.702;2022-12-07T08:37:48;25.15;;;16.52;;
70576;SDS011;58138;43.138;24.702;2022-12-07T08:40:14;23.83;;;16.92;;
70576;SDS011;58138;43.138;24.702;2022-12-07T08:42:43;29.48;;;17.05;;
70576;SDS011;58138;43.138;24.702;2022-12-07T08:45:13;25.10;;;16.33;;
70576;SDS011;58138;43.138;24.702;2022-12-07T08:47:44;22.45;;;14.40;;
70576;SDS011;58138;43.138;24.702;2022-12-07T08:50:15;26.48;;;17.90;;
70576;SDS011;58138;43.138;24.702;2022-12-07T08:52:40;22.80;;;15.23;;
70576;SDS011;58138;43.138;24.702;2022-12-07T08:55:06;29.25;;;17.27;;
70576;SDS011;58138;43.138;24.702;2022-12-07T08:57:34;26.40;;;17.45;;
70576;SDS011;58138;43.138;24.702;2022-12-07T09:00:00;22.75;;;16.17;;
70576;SDS011;58138;43.138;24.702;2022-12-07T09:02:26;27.60;;;19.17;;
70576;SDS011;58138;43.138;24.702;2022-12-07T09:04:52;37.28;;;24.98;;
70576;SDS011;58138;43.138;24.702;2022-12-07T09:07:17;32.38;;;21.88;;
70576;SDS011;58138;43.138;24.702;2022-12-07T09:09:43;32.92;;;22.85;;
70576;SDS011;58138;43.138;24.702;2022-12-07T09:12:08;30.77;;;19.88;;
70576;SDS011;58138;43.138;24.702;2022-12-07T09:14:35;50.38;;;35.72;;
70576;SDS011;58138;43.138;24.702;2022-12-07T09:17:08;62.25;;;44.20;;
70576;SDS011;58138;43.138;24.702;2022-12-07T09:19:35;38.42;;;25.80;;
70576;SDS011;58138;43.138;24.702;2022-12-07T09:22:01;41.40;;;27.77;;
70576;SDS011;58138;43.138;24.702;2022-12-07T09:24:27;43.13;;;26.98;;
70576;SDS011;58138;43.138;24.702;2022-12-07T09:26:52;38.20;;;24.80;;
70576;SDS011;58138;43.138;24.702;2022-12-07T09:29:18;54.20;;;30.77;;
70576;SDS011;58138;43.138;24.702;2022-12-07T09:31:43;39.85;;;24.90;;
70576;SDS011;58138;43.138;24.702;2022-12-07T09:34:09;38.05;;;23.30;;
70576;SDS011;58138;43.138;24.702;2022-12-07T09:36:34;36.95;;;23.63;;
70576;SDS011;58138;43.138;24.702;2022-12-07T09:39:00;38.10;;;24.67;;
70576;SDS011;58138;43.138;24.702;2022-12-07T09:41:26;28.23;;;19.70;;
70576;SDS011;58138;43.138;24.702;2022-12-07T09:43:53;32.58;;;20.45;;
70576;SDS011;58138;43.138;24.702;2022-12-07T09:46:23;32.35;;;21.73;;
70576;SDS011;58138;43.138;24.702;2022-12-07T09:48:49;32.28;;;21.40;;
70576;SDS011;58138;43.138;24.702;2022-12-07T09:51:19;32.05;;;18.35;;
70576;SDS011;58138;43.138;24.702;2022-12-07T09:53:46;33.42;;;18.05;;
70576;SDS011;58138;43.138;24.702;2022-12-07T09:56:13;31.90;;;18.83;;
70576;SDS011;58138;43.138;24.702;2022-12-07T09:58:39;28.23;;;18.05;;
70576;SDS011;58138;43.138;24.702;2022-12-07T10:03:35;32.00;;;18.05;;
70576;SDS011;58138;43.138;24.702;2022-12-07T10:06:01;27.70;;;16.83;;
70576;SDS011;58138;43.138;24.702;2022-12-07T10:08:27;27.17;;;19.60;;
70576;SDS011;58138;43.138;24.702;2022-12-07T10:10:54;30.75;;;17.58;;
70576;SDS011;58138;43.138;24.702;2022-12-07T10:16:54;26.42;;;15.65;;
70576;SDS011;58138;43.138;24.702;2022-12-07T10:19:17;22.80;;;15.75;;
70576;SDS011;58138;43.138;24.702;2022-12-07T10:22:30;24.45;;;16.48;;
70576;SDS011;58138;43.138;24.702;2022-12-07T10:24:38;26.73;;;16.38;;
70576;SDS011;58138;43.138;24.702;2022-12-07T10:27:16;36.25;;;21.00;;
70576;SDS011;58138;43.138;24.702;2022-12-07T10:29:52;37.97;;;19.77;;
70576;SDS011;58138;43.138;24.702;2022-12-07T10:34:44;31.38;;;20.92;;
70576;SDS011;58138;43.138;24.702;2022-12-07T10:39:45;29.30;;;19.98;;
70576;SDS011;58138;43.138;24.702;2022-12-07T10:42:22;32.05;;;20.83;;
70576;SDS011;58138;43.138;24.702;2022-12-07T10:44:49;29.38;;;18.92;;
70576;SDS011;58138;43.138;24.702;2022-12-07T10:53:31;33.05;;;21.67;;
70576;SDS011;58138;43.138;24.702;2022-12-07T11:12:20;25.00;;;15.10;;
70576;SDS011;58138;43.138;24.702;2022-12-07T11:15:14;22.42;;;14.63;;
70576;SDS011;58138;43.138;24.702;2022-12-07T11:31:00;19.87;;;13.63;;
70576;SDS011;58138;43.138;24.702;2022-12-07T11:33:49;22.45;;;14.48;;
70576;SDS011;58138;43.138;24.702;2022-12-07T11:38:57;24.30;;;15.82;;
70576;SDS011;58138;43.138;24.702;2022-12-07T11:41:27;20.33;;;14.35;;
70576;SDS011;58138;43.138;24.702;2022-12-07T11:47:02;29.63;;;18.27;;
70576;SDS011;58138;43.138;24.702;2022-12-07T11:49:47;25.85;;;15.40;;
70576;SDS011;58138;43.138;24.702;2022-12-07T11:55:18;16.20;;;12.88;;
70576;SDS011;58138;43.138;24.702;2022-12-07T11:58:02;20.05;;;13.73;;
70576;SDS011;58138;43.138;24.702;2022-12-07T12:00:30;20.33;;;13.73;;
70576;SDS011;58138;43.138;24.702;2022-12-07T12:03:03;19.88;;;13.45;;
70576;SDS011;58138;43.138;24.702;2022-12-07T12:05:33;19.63;;;13.50;;
70576;SDS011;58138;43.138;24.702;2022-12-07T12:08:05;25.40;;;15.77;;
70576;SDS011;58138;43.138;24.702;2022-12-07T12:13:29;25.33;;;15.32;;
70576;SDS011;58138;43.138;24.702;2022-12-07T12:16:08;31.10;;;18.45;;
70576;SDS011;58138;43.138;24.702;2022-12-07T12:21:15;27.58;;;16.77;;
70576;SDS011;58138;43.138;24.702;2022-12-07T12:24:16;24.58;;;19.20;;
70576;SDS011;58138;43.138;24.702;2022-12-07T12:26:48;20.27;;;14.80;;
70576;SDS011;58138;43.138;24.702;2022-12-07T12:29:21;24.52;;;15.60;;
70576;SDS011;58138;43.138;24.702;2022-12-07T12:32:15;23.48;;;16.15;;
70576;SDS011;58138;43.138;24.702;2022-12-07T12:37:45;24.35;;;16.30;;
70576;SDS011;58138;43.138;24.702;2022-12-07T12:42:58;28.10;;;16.33;;
70576;SDS011;58138;43.138;24.702;2022-12-07T12:45:27;30.50;;;20.10;;
70576;SDS011;58138;43.138;24.702;2022-12-07T12:50:33;25.42;;;17.25;;
70576;SDS011;58138;43.138;24.702;2022-12-07T12:56:27;23.98;;;16.73;;
70576;SDS011;58138;43.138;24.702;2022-12-07T12:58:31;29.98;;;18.08;;
70576;SDS011;58138;43.138;24.702;2022-12-07T13:03:57;25.05;;;17.00;;
70576;SDS011;58138;43.138;24.702;2022-12-07T13:08:49;24.83;;;15.60;;
70576;SDS011;58138;43.138;24.702;2022-12-07T13:19:55;34.58;;;24.17;;
70576;SDS011;58138;43.138;24.702;2022-12-07T13:24:56;23.83;;;16.48;;
70576;SDS011;58138;43.138;24.702;2022-12-07T13:27:28;21.95;;;15.93;;
70576;SDS011;58138;43.138;24.702;2022-12-07T13:29:54;24.70;;;17.00;;
70576;SDS011;58138;43.138;24.702;2022-12-07T13:32:25;27.40;;;20.40;;
70576;SDS011;58138;43.138;24.702;2022-12-07T13:34:53;29.87;;;19.87;;
70576;SDS011;58138;43.138;24.702;2022-12-07T13:39:52;35.90;;;20.83;;
70576;SDS011;58138;43.138;24.702;2022-12-07T13:42:27;26.08;;;18.55;;
70576;SDS011;58138;43.138;24.702;2022-12-07T13:44:53;30.63;;;20.25;;
70576;SDS011;58138;43.138;24.702;2022-12-07T13:49:58;31.50;;;20.95;;
70576;SDS011;58138;43.138;24.702;2022-12-07T13:52:25;33.53;;;21.38;;
70576;SDS011;58138;43.138;24.702;2022-12-07T13:55:05;30.65;;;20.60;;
70576;SDS011;58138;43.138;24.702;2022-12-07T13:57:38;29.38;;;18.45;;
70576;SDS011;58138;43.138;24.702;2022-12-07T14:00:05;25.15;;;17.88;;
70576;SDS011;58138;43.138;24.702;2022-12-07T14:02:32;24.70;;;17.20;;
70576;SDS011;58138;43.138;24.702;2022-12-07T14:07:48;31.25;;;19.77;;
70576;SDS011;58138;43.138;24.702;2022-12-07T14:10:26;38.45;;;24.10;;
70576;SDS011;58138;43.138;24.702;2022-12-07T14:12:59;32.92;;;22.15;;
70576;SDS011;58138;43.138;24.702;2022-12-07T14:15:35;50.80;;;32.90;;
70576;SDS011;58138;43.138;24.702;2022-12-07T14:18:02;40.17;;;25.23;;
70576;SDS011;58138;43.138;24.702;2022-12-07T14:20:35;51.05;;;31.27;;
70576;SDS011;58138;43.138;24.702;2022-12-07T14:23:05;47.53;;;31.13;;
70576;SDS011;58138;43.138;24.702;2022-12-07T14:25:48;42.15;;;27.55;;
70576;SDS011;58138;43.138;24.702;2022-12-07T14:28:34;42.97;;;25.50;;
70576;SDS011;58138;43.138;24.702;2022-12-07T14:31:01;44.63;;;30.10;;
70576;SDS011;58138;43.138;24.702;2022-12-07T14:33:27;40.15;;;27.00;;
70576;SDS011;58138;43.138;24.702;2022-12-07T14:35:53;47.28;;;31.33;;
70576;SDS011;58138;43.138;24.702;2022-12-07T14:38:23;41.92;;;27.65;;
70576;SDS011;58138;43.138;24.702;2022-12-07T14:40:49;49.53;;;31.80;;
70576;SDS011;58138;43.138;24.702;2022-12-07T14:43:16;55.40;;;34.47;;
70576;SDS011;58138;43.138;24.702;2022-12-07T14:45:42;53.92;;;32.88;;
70576;SDS011;58138;43.138;24.702;2022-12-07T14:48:10;68.70;;;40.17;;
70576;SDS011;58138;43.138;24.702;2022-12-07T14:50:38;52.03;;;32.33;;
70576;SDS011;58138;43.138;24.702;2022-12-07T14:53:15;45.70;;;30.00;;
70576;SDS011;58138;43.138;24.702;2022-12-07T14:55:42;44.30;;;28.60;;
70576;SDS011;58138;43.138;24.702;2022-12-07T14:58:12;50.88;;;30.13;;
70576;SDS011;58138;43.138;24.702;2022-12-07T15:00:39;59.30;;;31.90;;
70576;SDS011;58138;43.138;24.702;2022-12-07T15:03:04;54.13;;;32.33;;
70576;SDS011;58138;43.138;24.702;2022-12-07T15:05:30;66.97;;;36.25;;
70576;SDS011;58138;43.138;24.702;2022-12-07T15:07:55;44.65;;;28.23;;
70576;SDS011;58138;43.138;24.702;2022-12-07T15:10:25;61.72;;;36.78;;
70576;SDS011;58138;43.138;24.702;2022-12-07T15:13:00;66.57;;;36.85;;
70576;SDS011;58138;43.138;24.702;2022-12-07T15:15:46;73.78;;;38.85;;
70576;SDS011;58138;43.138;24.702;2022-12-07T15:18:12;75.80;;;41.55;;
70576;SDS011;58138;43.138;24.702;2022-12-07T15:20:37;67.95;;;37.03;;
70576;SDS011;58138;43.138;24.702;2022-12-07T15:23:03;62.30;;;35.42;;
70576;SDS011;58138;43.138;24.702;2022-12-07T15:25:28;67.05;;;37.85;;
70576;SDS011;58138;43.138;24.702;2022-12-07T15:27:54;64.03;;;37.17;;
70576;SDS011;58138;43.138;24.702;2022-12-07T15:30:19;69.13;;;40.13;;
70576;SDS011;58138;43.138;24.702;2022-12-07T15:32:48;71.03;;;41.55;;
70576;SDS011;58138;43.138;24.702;2022-12-07T15:35:14;64.53;;;37.00;;
70576;SDS011;58138;43.138;24.702;2022-12-07T15:37:40;64.70;;;38.38;;
70576;SDS011;58138;43.138;24.702;2022-12-07T15:40:05;68.50;;;40.90;;
70576;SDS011;58138;43.138;24.702;2022-12-07T15:42:32;68.18;;;39.70;;
70576;SDS011;58138;43.138;24.702;2022-12-07T15:44:57;88.03;;;55.35;;
70576;SDS011;58138;43.138;24.702;2022-12-07T15:47:29;90.13;;;55.37;;
70576;SDS011;58138;43.138;24.702;2022-12-07T15:49:55;93.35;;;55.00;;
70576;SDS011;58138;43.138;24.702;2022-12-07T15:52:20;74.65;;;43.95;;
70576;SDS011;58138;43.138;24.702;2022-12-07T15:54:46;73.25;;;45.70;;
70576;SDS011;58138;43.138;24.702;2022-12-07T15:57:12;71.70;;;42.55;;
70576;SDS011;58138;43.138;24.702;2022-12-07T15:59:38;77.82;;;44.88;;
70576;SDS011;58138;43.138;24.702;2022-12-07T16:02:03;143.35;;;93.57;;
70576;SDS011;58138;43.138;24.702;2022-12-07T16:04:29;109.40;;;65.60;;
70576;SDS011;58138;43.138;24.702;2022-12-07T16:06:55;92.97;;;50.92;;
70576;SDS011;58138;43.138;24.702;2022-12-07T16:09:21;81.15;;;48.90;;
70576;SDS011;58138;43.138;24.702;2022-12-07T16:11:47;86.90;;;52.00;;
70576;SDS011;58138;43.138;24.702;2022-12-07T16:14:12;101.07;;;56.47;;
70576;SDS011;58138;43.138;24.702;2022-12-07T16:16:38;132.07;;;69.93;;
70576;SDS011;58138;43.138;24.702;2022-12-07T16:19:05;144.27;;;62.92;;
70576;SDS011;58138;43.138;24.702;2022-12-07T16:21:30;161.82;;;63.15;;
70576;SDS011;58138;43.138;24.702;2022-12-07T16:23:59;117.72;;;50.05;;
70576;SDS011;58138;43.138;24.702;2022-12-07T16:26:24;137.43;;;44.25;;